createdAt,value
2018-04-08T00:02:17.680Z,13.30
2018-04-08T00:04:47.167Z,13.20
2018-04-08T00:07:15.902Z,13.20
2018-04-08T00:09:44.642Z,13.20
2018-04-08T00:12:13.375Z,13.10
2018-04-08T00:14:42.106Z,13.10
2018-04-08T00:17:10.838Z,13.20
2018-04-08T00:19:40.327Z,13.00
2018-04-08T00:22:09.056Z,13.00
2018-04-08T00:24:37.800Z,13.00
2018-04-08T00:27:06.518Z,13.00
2018-04-08T00:29:36.141Z,12.90
2018-04-08T00:32:04.870Z,12.80
2018-04-08T00:34:33.608Z,12.80
2018-04-08T00:37:02.008Z,12.80
2018-04-08T00:39:30.406Z,12.70
2018-04-08T00:41:58.794Z,12.70
2018-04-08T00:44:28.220Z,12.80
2018-04-08T00:46:56.606Z,12.70
2018-04-08T00:49:26.265Z,12.50
2018-04-08T00:51:54.651Z,12.50
2018-04-08T00:54:30.360Z,12.50
2018-04-08T00:56:59.610Z,12.50
2018-04-08T00:59:28.021Z,12.50
2018-04-08T01:01:58.383Z,12.50
2018-04-08T01:04:28.459Z,12.40
2018-04-08T01:06:57.183Z,12.30
2018-04-08T01:09:25.940Z,12.30
2018-04-08T01:11:54.666Z,12.20
2018-04-08T01:14:23.954Z,12.20
2018-04-08T01:16:53.210Z,12.20
2018-04-08T01:19:21.952Z,12.20
2018-04-08T01:21:50.687Z,12.20
2018-04-08T01:24:19.414Z,12.20
2018-04-08T01:26:49.848Z,12.20
2018-04-08T01:29:18.576Z,12.20
2018-04-08T01:31:47.969Z,12.10
2018-04-08T01:34:17.903Z,12.10
2018-04-08T01:36:46.386Z,12.20
2018-04-08T01:39:15.627Z,12.10
2018-04-08T01:41:44.897Z,12.00
2018-04-08T01:44:13.630Z,12.00
2018-04-08T01:46:42.358Z,11.90
2018-04-08T01:49:11.083Z,11.90
2018-04-08T01:51:40.580Z,11.90
2018-04-08T01:54:10.941Z,11.90
2018-04-08T01:56:39.720Z,12.00
2018-04-08T01:59:08.452Z,11.90
2018-04-08T02:01:36.967Z,11.80
2018-04-08T02:04:05.140Z,11.80
2018-04-08T02:06:33.886Z,11.80
2018-04-08T02:09:02.570Z,11.80
2018-04-08T02:11:30.980Z,11.80
2018-04-08T02:13:59.704Z,11.70
2018-04-08T02:16:28.865Z,11.70
2018-04-08T02:18:57.776Z,11.70
2018-04-08T02:21:27.281Z,11.60
2018-04-08T02:23:56.003Z,11.50
2018-04-08T02:26:25.292Z,11.60
2018-04-08T02:28:54.780Z,11.50
2018-04-08T02:31:23.261Z,11.50
2018-04-08T02:33:51.995Z,11.50
2018-04-08T02:36:20.392Z,11.40
2018-04-08T02:38:49.133Z,11.40
2018-04-08T02:41:18.627Z,11.40
2018-04-08T02:43:49.660Z,11.40
2018-04-08T02:46:18.384Z,11.40
2018-04-08T02:48:47.115Z,11.30
2018-04-08T02:51:15.847Z,11.30
2018-04-08T02:53:45.329Z,11.20
2018-04-08T02:56:14.059Z,11.20
2018-04-08T02:58:42.779Z,11.10
2018-04-08T03:01:11.503Z,11.10
2018-04-08T03:03:40.263Z,11.10
2018-04-08T03:06:09.175Z,11.00
2018-04-08T03:08:37.903Z,11.00
2018-04-08T03:11:06.622Z,11.10
2018-04-08T03:13:35.341Z,11.00
2018-04-08T03:16:03.827Z,11.00
2018-04-08T03:18:32.545Z,11.00
2018-04-08T03:21:01.270Z,11.00
2018-04-08T03:23:29.995Z,11.00
2018-04-08T03:25:58.716Z,10.90
2018-04-08T03:28:27.434Z,11.00
2018-04-08T03:30:55.915Z,10.90
2018-04-08T03:33:24.639Z,10.90
2018-04-08T03:35:53.363Z,10.90
2018-04-08T03:38:22.092Z,10.90
2018-04-08T03:40:50.808Z,10.90
2018-04-08T03:43:20.306Z,10.80
2018-04-08T03:45:49.032Z,10.80
2018-04-08T03:48:17.751Z,10.80
2018-04-08T03:50:46.459Z,10.80
2018-04-08T03:53:15.172Z,10.80
2018-04-08T03:55:44.657Z,10.70
2018-04-08T03:58:13.380Z,10.70
2018-04-08T04:00:42.630Z,10.70
2018-04-08T04:03:11.349Z,10.70
2018-04-08T04:05:40.606Z,10.70
2018-04-08T04:08:09.326Z,10.70
2018-04-08T04:10:38.587Z,10.60
2018-04-08T04:13:07.078Z,10.60
2018-04-08T04:15:35.553Z,10.60
2018-04-08T04:18:03.604Z,10.60
2018-04-08T04:20:53.443Z,10.60
2018-04-08T04:23:33.202Z,10.60
2018-04-08T04:32:07.722Z,10.50
2018-04-08T04:34:36.214Z,10.50
2018-04-08T04:37:04.715Z,10.50
2018-04-08T04:39:33.441Z,10.50
2018-04-08T04:42:01.830Z,10.50
2018-04-08T04:44:30.559Z,10.50
2018-04-08T04:46:59.279Z,10.50
2018-04-08T04:49:28.767Z,10.50
2018-04-08T04:51:57.488Z,10.50
2018-04-08T04:54:26.978Z,10.50
2018-04-08T04:56:56.232Z,10.50
2018-04-08T04:59:24.947Z,10.50
2018-04-08T05:01:53.662Z,10.50
2018-04-08T05:04:22.811Z,10.60
2018-04-08T05:06:51.623Z,10.60
2018-04-08T05:09:20.346Z,10.50
2018-04-08T05:11:49.098Z,10.60
2018-04-08T05:14:17.823Z,10.60
2018-04-08T05:16:46.542Z,10.60
2018-04-08T05:19:15.266Z,10.60
2018-04-08T05:21:43.987Z,10.60
2018-04-08T05:24:12.716Z,10.70
2018-04-08T05:26:41.437Z,10.70
2018-04-08T05:29:10.927Z,10.80
2018-04-08T05:31:39.647Z,10.80
2018-04-08T05:34:09.130Z,10.80
2018-04-08T05:36:37.880Z,10.80
2018-04-08T05:39:05.967Z,10.80
2018-04-08T05:41:34.695Z,10.90
2018-04-08T05:44:04.184Z,10.90
2018-04-08T05:46:32.903Z,10.90
2018-04-08T05:49:01.627Z,10.90
2018-04-08T05:51:30.024Z,11.00
2018-04-08T05:53:58.746Z,11.00
2018-04-08T05:56:27.487Z,11.00
2018-04-08T05:58:56.833Z,11.10
2018-04-08T06:01:28.731Z,11.20
2018-04-08T06:03:59.612Z,11.20
2018-04-08T06:06:30.941Z,11.20
2018-04-08T06:20:14.001Z,11.60
2018-04-08T06:22:42.754Z,11.70
2018-04-08T06:25:11.262Z,11.80
2018-04-08T06:27:47.637Z,11.90
2018-04-08T06:30:16.923Z,11.90
2018-04-08T06:32:45.820Z,12.00
2018-04-08T06:35:15.087Z,12.10
2018-04-08T06:37:43.592Z,12.10
2018-04-08T06:40:12.098Z,12.20
2018-04-08T06:42:40.599Z,12.30
2018-04-08T06:45:10.103Z,12.40
2018-04-08T06:47:38.612Z,12.40
2018-04-08T06:50:07.730Z,12.50
2018-04-08T06:52:36.474Z,12.60
2018-04-08T06:55:05.980Z,12.70
2018-04-08T06:57:35.041Z,12.70
2018-04-08T07:00:03.444Z,12.70
2018-04-08T07:02:32.599Z,12.80
2018-04-08T07:05:00.773Z,12.90
2018-04-08T07:07:29.507Z,13.00
2018-04-08T07:09:58.008Z,13.20
2018-04-08T07:12:26.218Z,13.40
2018-04-08T07:14:54.705Z,13.50
2018-04-08T07:17:23.428Z,13.70
2018-04-08T07:19:52.180Z,13.80
2018-04-08T07:22:20.919Z,13.90
2018-04-08T07:24:50.356Z,14.00
2018-04-08T07:27:19.266Z,14.10
2018-04-08T07:29:47.789Z,14.10
2018-04-08T07:32:17.460Z,14.30
2018-04-08T07:34:47.160Z,14.40
2018-04-08T07:37:17.676Z,14.50
2018-04-08T07:39:46.409Z,14.50
2018-04-08T07:42:15.911Z,14.80
2018-04-08T07:44:45.444Z,14.80
2018-04-08T07:47:14.177Z,14.80
2018-04-08T07:49:43.632Z,14.90
2018-04-08T07:52:13.494Z,15.00
2018-04-08T07:54:41.920Z,15.10
2018-04-08T07:59:53.496Z,15.20
2018-04-08T08:02:24.680Z,15.20
2018-04-08T08:04:53.454Z,15.20
2018-04-08T08:07:22.204Z,15.30
2018-04-08T08:09:51.843Z,15.50
2018-04-08T08:12:21.343Z,15.50
2018-04-08T08:14:50.134Z,15.50
2018-04-08T08:17:18.881Z,15.60
2018-04-08T08:19:48.232Z,15.70
2018-04-08T08:22:18.263Z,15.70
2018-04-08T08:24:46.991Z,15.70
2018-04-08T08:27:15.714Z,15.80
2018-04-08T08:29:45.239Z,16.00
2018-04-08T08:32:14.740Z,16.30
2018-04-08T08:34:43.938Z,16.20
2018-04-08T08:37:14.293Z,16.40
2018-04-08T08:39:43.015Z,16.40
2018-04-08T08:42:11.744Z,16.50
2018-04-08T08:44:41.587Z,16.80
2018-04-08T08:47:11.593Z,16.80
2018-04-08T08:49:40.328Z,17.00
2018-04-08T08:52:09.060Z,17.20
2018-04-08T08:54:38.758Z,17.30
2018-04-08T08:57:08.260Z,17.50
2018-04-08T08:59:38.170Z,17.60
2018-04-08T09:02:06.897Z,17.50
2018-04-08T09:04:35.966Z,17.70
2018-04-08T09:07:04.708Z,17.80
2018-04-08T09:09:33.459Z,17.90
2018-04-08T09:12:02.234Z,17.90
2018-04-08T09:14:30.973Z,18.00
2018-04-08T09:16:59.484Z,18.00
2018-04-08T09:19:28.781Z,18.00
2018-04-08T09:22:03.339Z,18.00
2018-04-08T09:24:41.737Z,18.10
2018-04-08T09:27:11.918Z,18.20
2018-04-08T09:29:41.441Z,18.20
2018-04-08T09:32:10.204Z,18.40
2018-04-08T09:34:38.710Z,18.40
2018-04-08T09:37:07.214Z,18.60
2018-04-08T09:39:36.603Z,18.60
2018-04-08T09:42:05.011Z,18.70
2018-04-08T09:44:34.788Z,18.90
2018-04-08T09:47:04.148Z,18.80
2018-04-08T09:49:34.334Z,19.00
2018-04-08T09:52:03.844Z,19.20
2018-04-08T09:54:33.339Z,19.20
2018-04-08T09:57:01.841Z,19.20
2018-04-08T09:59:31.127Z,19.20
2018-04-08T10:02:16.743Z,19.20
2018-04-08T10:04:45.247Z,19.30
2018-04-08T10:07:14.232Z,19.10
2018-04-08T10:09:43.882Z,19.10
2018-04-08T10:12:12.384Z,19.10
2018-04-08T10:14:41.103Z,19.30
2018-04-08T10:17:09.855Z,19.40
2018-04-08T10:19:38.397Z,19.40
2018-04-08T10:22:06.552Z,19.60
2018-04-08T10:24:35.055Z,19.60
2018-04-08T10:27:03.778Z,19.80
2018-04-08T10:29:32.594Z,19.80
2018-04-08T10:32:02.113Z,19.40
2018-04-08T10:34:30.832Z,19.40
2018-04-08T10:36:59.581Z,19.40
2018-04-08T10:39:28.363Z,19.50
2018-04-08T10:41:57.102Z,19.40
2018-04-08T10:44:25.847Z,19.20
2018-04-08T10:46:54.578Z,18.80
2018-04-08T10:49:23.304Z,18.70
2018-04-08T10:51:51.847Z,18.60
2018-04-08T10:54:20.721Z,18.60
2018-04-08T10:56:56.350Z,18.50
2018-04-08T10:59:25.683Z,18.50
2018-04-08T11:01:54.175Z,18.40
2018-04-08T11:04:22.918Z,18.30
2018-04-08T11:06:52.408Z,18.30
2018-04-08T11:09:21.901Z,18.20
2018-04-08T11:11:50.404Z,18.20
2018-04-08T11:14:19.898Z,17.90
2018-04-08T11:20:19.870Z,17.80
2018-04-08T11:22:48.600Z,17.80
2018-04-08T11:25:17.096Z,17.90
2018-04-08T11:27:45.916Z,17.90
2018-04-08T11:30:15.399Z,18.60
2018-04-08T11:32:44.108Z,18.60
2018-04-08T11:35:13.586Z,19.10
2018-04-08T11:37:42.319Z,19.00
2018-04-08T11:40:11.090Z,19.10
2018-04-08T11:42:40.581Z,19.00
2018-04-08T11:45:09.305Z,19.00
2018-04-08T11:47:38.025Z,18.90
2018-04-08T11:50:06.520Z,18.90
2018-04-08T11:52:35.248Z,19.10
2018-04-08T11:55:04.399Z,19.50
2018-04-08T11:57:33.123Z,19.50
2018-04-08T12:00:02.276Z,19.40
2018-04-08T12:02:30.764Z,19.40
2018-04-08T12:04:59.485Z,19.50
2018-04-08T12:07:28.750Z,19.50
2018-04-08T12:09:57.241Z,19.50
2018-04-08T12:12:26.117Z,19.50
2018-04-08T12:14:54.887Z,19.30
2018-04-08T12:17:23.763Z,19.30
2018-04-08T12:19:54.179Z,19.00
2018-04-08T12:22:23.436Z,18.80
2018-04-08T12:24:51.945Z,18.80
2018-04-08T12:27:20.435Z,18.70
2018-04-08T12:29:49.688Z,18.90
2018-04-08T12:32:18.423Z,18.90
2018-04-08T12:34:47.688Z,19.10
2018-04-08T12:37:16.449Z,19.10
2018-04-08T12:39:45.345Z,19.10
2018-04-08T12:42:14.072Z,19.00
2018-04-08T12:44:42.788Z,19.00
2018-04-08T12:47:12.286Z,19.20
2018-04-08T12:49:40.770Z,19.20
2018-04-08T12:52:09.587Z,19.10
2018-04-08T12:54:38.083Z,19.10
2018-04-08T12:57:06.813Z,19.00
2018-04-08T12:59:35.542Z,18.90
2018-04-08T13:02:03.710Z,18.80
2018-04-08T13:04:32.966Z,18.80
2018-04-08T13:07:01.460Z,18.80
2018-04-08T13:09:30.190Z,19.10
2018-04-08T13:11:58.691Z,19.40
2018-04-08T13:14:27.174Z,19.60
2018-04-08T13:16:55.891Z,19.70
2018-04-08T13:19:24.401Z,19.80
2018-04-08T13:21:53.658Z,20.10
2018-04-08T13:24:22.372Z,20.00
2018-04-08T13:26:51.090Z,20.00
2018-04-08T13:29:19.600Z,20.10
2018-04-08T13:31:48.324Z,20.10
2018-04-08T13:34:18.167Z,20.30
2018-04-08T13:36:47.668Z,20.50
2018-04-08T13:39:16.941Z,20.40
2018-04-08T13:41:45.669Z,20.30
2018-04-08T13:44:14.396Z,20.30
2018-04-08T13:46:43.124Z,20.30
2018-04-08T13:49:12.610Z,20.40
2018-04-08T13:51:41.003Z,20.40
2018-04-08T13:54:09.721Z,20.50
2018-04-08T13:56:38.443Z,20.50
2018-04-08T13:59:07.164Z,20.60
2018-04-08T14:01:35.669Z,20.70
2018-04-08T14:04:05.165Z,20.90
2018-04-08T14:06:34.427Z,20.90
2018-04-08T14:09:02.919Z,20.80
2018-04-08T14:11:31.748Z,20.90
2018-04-08T14:14:01.240Z,21.30
2018-04-08T14:16:30.736Z,21.20
2018-04-08T14:18:59.470Z,21.20
2018-04-08T14:21:28.208Z,21.10
2018-04-08T14:23:56.948Z,21.10
2018-04-08T14:26:26.646Z,21.10
2018-04-08T14:28:56.129Z,21.20
2018-04-08T14:31:24.850Z,21.20
2018-04-08T14:33:53.575Z,21.30
2018-04-08T14:36:22.072Z,21.30
2018-04-08T14:38:50.791Z,21.40
2018-04-08T14:41:20.295Z,21.50
2018-04-08T14:43:49.782Z,21.50
2018-04-08T14:46:18.275Z,21.50
2018-04-08T14:48:47.764Z,21.40
2018-04-08T14:51:16.252Z,21.40
2018-04-08T14:53:44.735Z,21.40
2018-04-08T14:56:13.454Z,21.50
2018-04-08T14:58:42.181Z,21.50
2018-04-08T15:01:10.675Z,21.50
2018-04-08T15:03:39.402Z,21.50
2018-04-08T15:06:08.647Z,21.30
2018-04-08T15:08:37.378Z,21.30
2018-04-08T15:11:06.859Z,21.50
2018-04-08T15:13:35.347Z,21.50
2018-04-08T15:16:03.841Z,21.60
2018-04-08T15:18:32.331Z,21.60
2018-04-08T15:21:01.129Z,21.60
2018-04-08T15:23:30.396Z,21.40
2018-04-08T15:25:59.099Z,21.40
2018-04-08T15:28:27.814Z,21.30
2018-04-08T15:30:57.290Z,21.20
2018-04-08T15:33:25.801Z,21.20
2018-04-08T15:35:55.282Z,21.10
2018-04-08T15:38:24.006Z,21.10
2018-04-08T15:40:53.388Z,21.10
2018-04-08T15:43:22.660Z,21.00
2018-04-08T15:45:51.148Z,21.00
2018-04-08T15:48:19.637Z,20.80
2018-04-08T15:50:48.353Z,20.70
2018-04-08T15:53:18.722Z,20.70
2018-04-08T15:55:47.443Z,20.70
2018-04-08T15:58:16.168Z,20.60
2018-04-08T16:00:44.898Z,20.60
2018-04-08T16:03:13.618Z,20.50
2018-04-08T16:05:43.227Z,20.40
2018-04-08T16:08:12.388Z,20.30
2018-04-08T16:10:41.996Z,20.30
2018-04-08T16:13:10.494Z,20.30
2018-04-08T16:15:39.213Z,20.20
2018-04-08T16:18:08.692Z,19.80
2018-04-08T16:20:37.202Z,19.70
2018-04-08T16:23:06.687Z,19.30
2018-04-08T16:25:35.434Z,19.30
2018-04-08T16:28:04.330Z,19.30
2018-04-08T16:30:32.975Z,19.10
2018-04-08T16:33:01.696Z,19.00
2018-04-08T16:35:30.203Z,18.80
2018-04-08T16:37:58.969Z,18.70
2018-04-08T16:40:28.855Z,18.60
2018-04-08T16:42:57.587Z,18.60
2018-04-08T16:45:26.326Z,18.50
2018-04-08T16:47:58.037Z,18.50
2018-04-08T16:50:27.267Z,18.60
2018-04-08T16:52:57.242Z,18.40
2018-04-08T16:55:25.773Z,18.40
2018-04-08T16:57:56.387Z,18.30
2018-04-08T17:00:25.140Z,18.30
2018-04-08T17:02:56.744Z,18.10
2018-04-08T17:05:26.255Z,17.90
2018-04-08T17:07:55.762Z,17.80
2018-04-08T17:10:25.018Z,17.70
2018-04-08T17:12:53.745Z,17.70
2018-04-08T17:15:23.939Z,17.60
2018-04-08T17:17:52.454Z,17.60
2018-04-08T17:20:22.397Z,17.50
2018-04-08T17:22:50.932Z,17.50
2018-04-08T17:25:19.439Z,17.50
2018-04-08T17:27:49.219Z,17.30
2018-04-08T17:30:17.971Z,17.30
2018-04-08T17:32:54.365Z,17.20
2018-04-08T17:35:23.095Z,17.20
2018-04-08T17:37:52.498Z,17.10
2018-04-08T17:40:21.342Z,17.10
2018-04-08T17:42:49.832Z,17.00
2018-04-08T17:45:18.365Z,16.80
2018-04-08T17:47:47.044Z,16.80
2018-04-08T17:50:16.547Z,16.70
2018-04-08T17:52:45.807Z,16.70
2018-04-08T17:55:14.556Z,16.70
2018-04-08T17:57:44.053Z,16.70
2018-04-08T18:00:12.233Z,16.50
2018-04-08T18:02:42.704Z,16.50
2018-04-08T18:05:11.446Z,16.40
2018-04-08T18:07:40.166Z,16.30
2018-04-08T18:10:09.661Z,16.10
2018-04-08T18:12:38.933Z,16.10
2018-04-08T18:15:08.995Z,15.90
2018-04-08T18:17:38.487Z,15.90
2018-04-08T18:20:07.226Z,15.90
2018-04-08T18:22:35.958Z,15.70
2018-04-08T18:25:04.731Z,15.70
2018-04-08T18:27:34.460Z,15.70
2018-04-08T18:30:11.000Z,15.60
2018-04-08T18:32:42.976Z,15.60
2018-04-08T18:35:11.710Z,15.50
2018-04-08T18:37:40.460Z,15.50
2018-04-08T18:40:10.236Z,15.50
2018-04-08T18:42:39.731Z,15.30
2018-04-08T18:45:08.461Z,15.30
2018-04-08T18:47:36.916Z,15.30
2018-04-08T18:50:06.875Z,15.20
2018-04-08T18:52:35.620Z,15.20
2018-04-08T18:55:06.028Z,15.10
2018-04-08T18:57:34.764Z,15.10
2018-04-08T19:00:03.519Z,15.10
2018-04-08T19:02:33.080Z,14.90
2018-04-08T19:05:02.974Z,14.90
2018-04-08T19:07:31.486Z,14.90
2018-04-08T19:10:00.211Z,14.80
2018-04-08T19:12:29.534Z,14.80
2018-04-08T19:15:05.258Z,14.70
2018-04-08T19:17:39.551Z,14.70
2018-04-08T19:20:08.276Z,14.70
2018-04-08T19:22:38.488Z,14.60
2018-04-08T19:25:07.220Z,14.60
2018-04-08T19:27:37.108Z,14.50
2018-04-08T19:30:11.968Z,14.40
2018-04-08T19:32:40.912Z,14.40
2018-04-08T19:35:09.646Z,14.30
2018-04-08T19:37:38.421Z,14.30
2018-04-08T19:40:07.168Z,14.20
2018-04-08T19:42:35.935Z,14.20
2018-04-08T19:45:06.588Z,14.20
2018-04-08T19:47:35.323Z,14.10
2018-04-08T19:50:03.743Z,14.00
2018-04-08T19:52:32.496Z,14.00
2018-04-08T19:55:01.047Z,13.90
2018-04-08T19:57:29.797Z,13.90
2018-04-08T20:00:00.256Z,13.90
2018-04-08T20:02:29.807Z,13.90
2018-04-08T20:04:58.546Z,13.90
2018-04-08T20:07:27.863Z,13.80
2018-04-08T20:09:57.507Z,13.80
2018-04-08T20:12:32.038Z,13.80
2018-04-08T20:15:01.925Z,13.80
2018-04-08T20:17:31.295Z,13.70
2018-04-08T20:20:00.651Z,13.60
2018-04-08T20:22:29.184Z,13.60
2018-04-08T20:25:00.948Z,13.60
2018-04-08T20:27:30.652Z,13.50
2018-04-08T20:30:00.324Z,13.40
2018-04-08T20:32:29.370Z,13.30
2018-04-08T20:35:03.473Z,13.30
2018-04-08T20:37:32.071Z,13.30
2018-04-08T20:40:01.353Z,13.30
2018-04-08T20:42:30.110Z,13.30
2018-04-08T20:44:59.623Z,13.00
2018-04-08T20:47:28.652Z,13.00
2018-04-08T20:49:58.012Z,13.10
2018-04-08T20:52:27.691Z,12.90
2018-04-08T20:54:57.342Z,12.70
2018-04-08T20:57:26.724Z,12.70
2018-04-08T20:59:56.232Z,12.60
2018-04-08T21:02:24.988Z,12.60
2018-04-08T21:04:53.716Z,12.60
2018-04-08T21:07:22.472Z,12.60
2018-04-08T21:09:51.206Z,12.50
2018-04-08T21:12:19.930Z,12.40
2018-04-08T21:14:49.611Z,12.40
2018-04-08T21:17:18.439Z,12.30
2018-04-08T21:19:47.210Z,12.30
2018-04-08T21:22:15.957Z,12.30
2018-04-08T21:24:45.064Z,12.20
2018-04-08T21:27:13.827Z,12.20
2018-04-08T21:29:42.983Z,12.10
2018-04-08T21:32:11.721Z,12.00
2018-04-08T21:34:40.229Z,12.00
2018-04-08T21:37:09.534Z,12.00
2018-04-08T21:39:38.273Z,11.90
2018-04-08T21:42:07.541Z,11.90
2018-04-08T21:44:36.043Z,11.90
2018-04-08T21:47:04.767Z,11.90
2018-04-08T21:49:33.277Z,11.80
2018-04-08T21:52:01.780Z,11.80
2018-04-08T21:54:30.271Z,11.70
2018-04-08T21:56:59.240Z,11.70
2018-04-08T21:59:28.000Z,11.60
2018-04-08T22:01:56.767Z,11.60
2018-04-08T22:04:26.267Z,11.50
2018-04-08T22:06:55.757Z,11.50
2018-04-08T22:09:24.493Z,11.40
2018-04-08T22:11:53.227Z,11.50
2018-04-08T22:14:21.947Z,11.40
2018-04-08T22:16:52.229Z,11.30
2018-04-08T22:19:20.970Z,11.30
2018-04-08T22:21:49.703Z,11.30
2018-04-08T22:24:18.436Z,11.20
2018-04-08T22:26:48.624Z,11.10
2018-04-08T22:29:17.360Z,11.10
2018-04-08T22:31:46.112Z,11.10
2018-04-08T22:34:14.844Z,11.00
2018-04-08T22:36:43.571Z,11.00
2018-04-08T22:39:12.293Z,11.00
2018-04-08T22:41:41.119Z,10.90
2018-04-08T22:44:10.812Z,10.90
2018-04-08T22:46:39.535Z,10.90
2018-04-08T22:49:08.268Z,10.80
2018-04-08T22:51:37.794Z,10.80
2018-04-08T22:54:07.169Z,10.70
2018-04-08T22:56:36.672Z,10.70
2018-04-08T22:59:06.074Z,10.70
2018-04-08T23:01:34.816Z,10.60
2018-04-08T23:04:03.550Z,10.60
2018-04-08T23:06:33.079Z,10.50
2018-04-08T23:09:02.595Z,10.40
2018-04-08T23:11:31.143Z,10.40
2018-04-08T23:14:00.056Z,10.40
2018-04-08T23:16:30.248Z,10.30
2018-04-08T23:18:59.037Z,10.30
2018-04-08T23:21:28.571Z,10.30
2018-04-08T23:23:58.797Z,10.30
2018-04-08T23:26:29.298Z,10.20
2018-04-08T23:28:58.038Z,10.20
2018-04-08T23:31:26.818Z,10.20
2018-04-08T23:33:56.236Z,10.20
2018-04-08T23:36:25.012Z,10.10
2018-04-08T23:38:55.224Z,10.10
2018-04-08T23:41:23.968Z,10.10
2018-04-08T23:43:53.173Z,10.10
2018-04-08T23:46:44.672Z,10.10
2018-04-08T23:49:14.281Z,10.10
2018-04-08T23:51:43.038Z,10.00
2018-04-08T23:54:12.544Z,10.00
2018-04-08T23:56:41.407Z,9.90
2018-04-08T23:59:10.442Z,9.90
